Time;durP1;ratioP1;P1;durP2;ratioP2;P2;SDS_P1;SDS_P2;PMS_P1;PMS_P2;Temp;Humidity;BMP_temperature;BMP_pressure;BME280_temperature;BME280_humidity;BME280_pressure;Samples;Min_cycle;Max_cycle;Signal;HPM_P1;HPM_P2
2022/03/07 00:01:22;;;;;;;15.07;7.07;;;;;;;-1.26;76.63;102674.88;5069620;28;20040;-74
2022/03/07 00:03:47;;;;;;;12.63;5.93;;;;;;;-1.29;77.00;102669.78;5069603;28;20047;-75
2022/03/07 00:06:12;;;;;;;12.20;5.88;;;;;;;-1.32;77.27;102673.41;5069680;28;20025;-74
2022/03/07 00:08:38;;;;;;;14.07;7.18;;;;;;;-1.34;77.28;102676.13;5069331;28;20084;-74
2022/03/07 00:11:03;;;;;;;13.95;6.15;;;;;;;-1.41;77.59;102661.63;5068556;28;20066;-74
2022/03/07 00:13:29;;;;;;;14.15;6.90;;;;;;;-1.58;77.24;102649.31;5068817;28;20609;-74
2022/03/07 00:15:54;;;;;;;14.10;6.65;;;;;;;-1.48;77.26;102675.06;5068980;28;20032;-74
2022/03/07 00:18:20;;;;;;;16.67;6.93;;;;;;;-1.50;78.06;102674.28;5069446;28;20040;-74
2022/03/07 00:20:46;;;;;;;12.05;6.55;;;;;;;-1.60;77.95;102660.78;5068047;28;20040;-74
2022/03/07 00:23:11;;;;;;;12.48;6.35;;;;;;;-1.57;78.24;102665.91;5069515;28;20025;-74
2022/03/07 00:25:37;;;;;;;20.13;10.05;;;;;;;-1.59;78.05;102668.56;5069248;28;20029;-74
2022/03/07 00:28:03;;;;;;;18.67;8.13;;;;;;;-1.58;78.38;102670.25;5069371;28;20040;-74
2022/03/07 00:30:28;;;;;;;16.90;7.18;;;;;;;-1.61;78.72;102675.63;5069398;28;20028;-74
2022/03/07 00:32:53;;;;;;;14.70;7.75;;;;;;;-1.67;78.59;102662.84;5069360;28;20032;-74
2022/03/07 00:35:19;;;;;;;15.18;6.88;;;;;;;-1.63;78.58;102680.09;5067979;28;20033;-74
2022/03/07 00:37:44;;;;;;;13.35;6.97;;;;;;;-1.70;78.79;102675.22;5069329;28;20066;-74
2022/03/07 00:40:10;;;;;;;21.65;8.68;;;;;;;-1.70;78.97;102681.31;5068101;28;20037;-74
2022/03/07 00:42:37;;;;;;;13.85;6.50;;;;;;;-1.78;79.10;102683.44;5069478;28;20063;-74
2022/03/07 00:45:06;;;;;;;14.30;7.53;;;;;;;-1.88;79.14;102679.56;5068788;28;20028;-75
2022/03/07 00:47:31;;;;;;;16.60;6.78;;;;;;;-2.00;79.35;102688.78;5069061;28;20036;-74
2022/03/07 00:49:56;;;;;;;10.75;5.65;;;;;;;-2.15;79.92;102676.41;5069223;28;20392;-74
2022/03/07 00:52:22;;;;;;;12.10;5.90;;;;;;;-2.25;79.75;102682.06;5069194;28;20028;-74
2022/03/07 00:54:47;;;;;;;12.90;6.28;;;;;;;-2.26;80.30;102674.28;5068949;28;20037;-74
2022/03/07 00:57:12;;;;;;;13.38;6.57;;;;;;;-2.28;80.86;102678.72;5069047;28;20064;-74
2022/03/07 00:59:38;;;;;;;14.27;7.65;;;;;;;-2.19;81.32;102680.09;5069150;28;20036;-74
2022/03/07 01:02:03;;;;;;;13.60;7.65;;;;;;;-2.14;81.04;102681.59;5069006;28;20085;-74
2022/03/07 01:04:28;;;;;;;14.55;6.65;;;;;;;-2.15;81.43;102677.25;5068997;28;20029;-75
2022/03/07 01:06:54;;;;;;;13.10;6.38;;;;;;;-2.06;80.94;102686.47;5069091;28;20029;-74
2022/03/07 01:09:19;;;;;;;11.32;6.38;;;;;;;-2.03;80.67;102684.56;5069022;28;20029;-74
2022/03/07 01:11:45;;;;;;;17.35;8.30;;;;;;;-2.00;81.03;102688.78;5068970;28;20395;-74
2022/03/07 01:14:10;;;;;;;13.52;6.72;;;;;;;-2.00;80.92;102689.63;5069097;28;20032;-74
2022/03/07 01:16:35;;;;;;;12.82;6.57;;;;;;;-1.99;81.47;102685.28;5067588;28;20068;-74
2022/03/07 01:19:01;;;;;;;13.57;6.57;;;;;;;-2.01;81.32;102690.56;5068914;28;20032;-74
2022/03/07 01:21:26;;;;;;;15.95;6.32;;;;;;;-2.06;81.04;102687.31;5068992;28;20075;-74
2022/03/07 01:23:51;;;;;;;15.80;7.35;;;;;;;-2.12;81.17;102689.34;5071063;28;20039;-74
2022/03/07 01:26:17;;;;;;;14.02;6.88;;;;;;;-2.19;81.35;102686.16;5072543;28;20032;-74
2022/03/07 01:28:43;;;;;;;16.27;6.55;;;;;;;-2.23;82.03;102688.06;5072399;28;20090;-74
2022/03/07 01:31:08;;;;;;;15.93;7.72;;;;;;;-2.21;82.37;102680.16;5072313;28;20051;-74
2022/03/07 01:33:33;;;;;;;13.65;6.75;;;;;;;-2.23;81.88;102671.53;5072229;28;20028;-74
2022/03/07 01:35:59;;;;;;;15.85;8.55;;;;;;;-2.16;81.87;102686.03;5070919;28;20025;-74
2022/03/07 01:38:25;;;;;;;14.23;6.75;;;;;;;-2.14;81.56;102689.41;5072043;28;20075;-74
2022/03/07 01:40:50;;;;;;;14.98;6.53;;;;;;;-2.17;81.59;102676.50;5072312;28;20471;-74
2022/03/07 01:43:16;;;;;;;25.85;9.43;;;;;;;-2.23;81.53;102669.78;5054220;28;21006;-74
2022/03/07 01:45:41;;;;;;;15.48;8.05;;;;;;;-2.19;81.63;102686.16;5072172;28;20032;-74
2022/03/07 01:48:07;;;;;;;13.50;6.57;;;;;;;-2.26;81.80;102666.44;5072117;28;20424;-74
2022/03/07 01:50:32;;;;;;;14.70;7.43;;;;;;;-2.22;82.07;102683.69;5070637;28;20119;-74
2022/03/07 01:52:58;;;;;;;15.13;8.00;;;;;;;-2.29;81.89;102679.66;5070838;28;20038;-74
2022/03/07 01:55:23;;;;;;;14.23;7.72;;;;;;;-2.27;82.49;102686.50;5070296;28;20506;-74
2022/03/07 01:57:49;;;;;;;15.95;7.05;;;;;;;-2.36;82.50;102686.88;5071771;28;20061;-74
2022/03/07 02:00:18;;;;;;;18.23;6.85;;;;;;;-2.51;82.10;102671.91;5071692;28;20537;-74
2022/03/07 02:02:43;;;;;;;16.35;7.40;;;;;;;-2.59;82.12;102682.69;5071714;28;20186;-74
2022/03/07 02:05:10;;;;;;;14.02;6.35;;;;;;;-2.69;82.59;102674.38;5071276;28;20116;-74
2022/03/07 02:07:37;;;;;;;17.05;7.88;;;;;;;-2.71;83.74;102685.81;5071577;28;20082;-74
2022/03/07 02:10:03;;;;;;;17.30;7.82;;;;;;;-2.73;83.59;102682.41;5071556;28;20116;-74
2022/03/07 02:12:29;;;;;;;14.48;7.43;;;;;;;-2.74;83.81;102678.97;5070205;28;20411;-74
2022/03/07 02:14:54;;;;;;;14.82;7.00;;;;;;;-2.82;83.44;102662.78;5071516;28;20035;-74
2022/03/07 02:17:19;;;;;;;15.38;7.30;;;;;;;-2.87;84.00;102660.34;5071531;28;20101;-74
2022/03/07 02:19:45;;;;;;;13.20;6.95;;;;;;;-2.89;84.39;102663.94;5071486;28;20514;-76
2022/03/07 02:22:10;;;;;;;12.82;6.38;;;;;;;-2.93;83.95;102665.84;5071409;28;20028;-75
2022/03/07 02:24:36;;;;;;;19.10;8.27;;;;;;;-2.95;84.24;102664.22;5071213;28;20475;-75
2022/03/07 02:27:05;;;;;;;16.42;6.75;;;;;;;-2.99;85.17;102662.63;5071253;28;20024;-75
2022/03/07 02:29:31;;;;;;;17.23;8.23;;;;;;;-2.96;84.95;102667.72;5071183;28;20028;-74
2022/03/07 02:31:57;;;;;;;17.70;7.72;;;;;;;-2.98;84.77;102661.72;5069843;28;20060;-74
2022/03/07 02:34:23;;;;;;;16.17;7.22;;;;;;;-3.02;84.69;102666.22;5070382;28;20033;-74
2022/03/07 02:36:48;;;;;;;17.65;9.07;;;;;;;-3.03;84.52;102656.69;5070992;28;20041;-74
2022/03/07 02:39:14;;;;;;;14.98;8.05;;;;;;;-2.96;85.35;102663.38;5069703;28;20558;-74
2022/03/07 02:41:40;;;;;;;20.98;8.75;;;;;;;-2.89;85.42;102675.22;5071178;28;20052;-75
2022/03/07 02:44:07;;;;;;;17.15;8.95;;;;;;;-2.84;84.88;102669.81;5071095;28;20050;-76
2022/03/07 02:46:33;;;;;;;18.20;9.25;;;;;;;-2.83;84.64;102658.44;5070891;28;20553;-75
2022/03/07 02:48:58;;;;;;;16.30;8.23;;;;;;;-2.74;84.37;102663.28;5069563;28;20066;-75
2022/03/07 02:51:24;;;;;;;17.90;8.23;;;;;;;-2.71;84.10;102668.38;5070866;28;20100;-75
2022/03/07 02:53:49;;;;;;;17.02;8.07;;;;;;;-2.74;83.72;102660.69;5070831;28;20379;-75
2022/03/07 02:56:15;;;;;;;17.80;7.53;;;;;;;-2.74;84.47;102658.06;5071708;28;20028;-74
2022/03/07 02:58:41;;;;;;;18.08;8.18;;;;;;;-2.69;84.77;102661.34;5072236;28;20082;-74
2022/03/07 03:01:07;;;;;;;17.75;9.07;;;;;;;-2.73;84.56;102649.31;5070865;28;20422;-74
2022/03/07 03:03:32;;;;;;;18.02;8.00;;;;;;;-2.69;84.98;102655.28;5070369;28;20415;-74
2022/03/07 03:05:58;;;;;;;18.65;9.05;;;;;;;-2.63;85.04;102659.38;5070453;28;20111;-74
2022/03/07 03:08:23;;;;;;;17.08;8.02;;;;;;;-2.60;84.31;102651.41;5070467;28;20024;-75
2022/03/07 03:10:50;;;;;;;18.08;9.27;;;;;;;-2.59;85.31;102658.31;5069213;28;20028;-75
2022/03/07 03:13:17;;;;;;;15.25;8.13;;;;;;;-2.60;85.04;102659.22;5070401;28;20123;-75
2022/03/07 03:15:43;;;;;;;17.58;8.32;;;;;;;-2.57;85.05;102666.94;5070238;28;20448;-75
2022/03/07 03:18:09;;;;;;;17.60;8.57;;;;;;;-2.54;85.18;102661.56;5070385;28;20544;-75
2022/03/07 03:20:34;;;;;;;16.13;7.20;;;;;;;-2.58;83.33;102646.97;5070267;28;20036;-74
2022/03/07 03:23:00;;;;;;;15.00;7.90;;;;;;;-2.53;83.48;102656.28;5070280;28;21091;-74
2022/03/07 03:25:25;;;;;;;18.42;9.07;;;;;;;-2.46;83.85;102657.72;5070136;28;20055;-74
2022/03/07 03:27:50;;;;;;;20.45;9.50;;;;;;;-2.45;84.66;102666.41;5070306;28;20032;-74
2022/03/07 03:30:16;;;;;;;18.25;8.82;;;;;;;-2.44;85.02;102665.47;5070035;28;20047;-74
2022/03/07 03:32:41;;;;;;;18.77;9.93;;;;;;;-2.50;84.64;102652.69;5070121;28;20028;-74
2022/03/07 03:35:07;;;;;;;22.20;10.27;;;;;;;-2.52;84.78;102652.75;5069981;28;20021;-74
2022/03/07 03:37:33;;;;;;;17.38;8.90;;;;;;;-2.51;84.94;102667.53;5069816;28;20051;-74
2022/03/07 03:39:58;;;;;;;16.42;8.20;;;;;;;-2.51;85.11;102664.06;5069928;28;20123;-74
2022/03/07 03:42:23;;;;;;;20.23;8.50;;;;;;;-2.55;85.55;102662.50;5069922;28;20082;-74
2022/03/07 03:44:49;;;;;;;20.60;8.50;;;;;;;-2.47;85.49;102674.31;5069596;28;20024;-74
2022/03/07 03:47:15;;;;;;;19.55;9.23;;;;;;;-2.48;86.13;102667.38;5069238;28;20040;-74
2022/03/07 03:49:40;;;;;;;17.80;8.50;;;;;;;-2.48;85.86;102672.63;5069295;28;20099;-74
2022/03/07 03:52:06;;;;;;;23.42;9.30;;;;;;;-2.49;85.26;102672.66;5069464;28;20037;-74
2022/03/07 03:54:32;;;;;;;19.60;9.82;;;;;;;-2.58;85.55;102668.69;5068283;28;20086;-74
2022/03/07 03:56:57;;;;;;;19.85;8.93;;;;;;;-2.58;85.00;102673.09;5069693;28;20033;-74
2022/03/07 03:59:22;;;;;;;19.80;9.48;;;;;;;-2.61;85.67;102673.22;5069856;28;20037;-74
2022/03/07 04:01:48;;;;;;;16.73;8.30;;;;;;;-2.66;85.33;102679.47;5069703;28;20863;-74
2022/03/07 04:04:14;;;;;;;19.98;9.25;;;;;;;-2.78;85.46;102656.50;5069724;28;20028;-74
2022/03/07 04:06:41;;;;;;;19.17;9.57;;;;;;;-2.87;85.36;102649.06;5068074;28;20036;-74
2022/03/07 04:09:20;;;;;;;19.42;9.25;;;;;;;-2.78;86.11;102666.09;5069556;28;20476;-74
2022/03/07 04:11:47;;;;;;;18.05;8.20;;;;;;;-2.74;86.14;102672.91;5069542;28;20871;-75
2022/03/07 04:14:13;;;;;;;19.80;8.20;;;;;;;-2.78;86.34;102677.38;5069288;28;20028;-75
2022/03/07 04:16:39;;;;;;;20.77;10.25;;;;;;;-2.76;86.30;102679.94;5069434;28;20089;-75
2022/03/07 04:19:06;;;;;;;20.02;8.80;;;;;;;-2.78;87.15;102666.94;5069475;28;20399;-75
2022/03/07 04:21:33;;;;;;;18.45;8.60;;;;;;;-2.75;86.49;102669.44;5068801;28;20028;-74
2022/03/07 04:23:58;;;;;;;18.88;10.07;;;;;;;-2.84;86.48;102661.97;5068923;28;20059;-74
2022/03/07 04:26:24;;;;;;;16.98;8.80;;;;;;;-2.81;86.88;102671.44;5068636;28;20587;-74
2022/03/07 04:28:49;;;;;;;19.23;9.68;;;;;;;-2.80;86.88;102674.00;5067940;28;20078;-74
2022/03/07 04:31:15;;;;;;;24.33;10.25;;;;;;;-2.82;87.03;102672.38;5068071;28;20038;-74
2022/03/07 04:33:41;;;;;;;18.73;9.40;;;;;;;-2.89;87.01;102666.56;5069166;28;20043;-74
2022/03/07 04:36:06;;;;;;;18.30;8.40;;;;;;;-2.88;87.08;102673.50;5069151;28;20032;-74
2022/03/07 04:38:32;;;;;;;18.55;8.95;;;;;;;-2.88;86.87;102666.50;5067783;28;20052;-74
2022/03/07 04:40:57;;;;;;;19.05;9.73;;;;;;;-2.91;87.07;102665.75;5069361;28;20067;-74
2022/03/07 04:43:23;;;;;;;17.60;8.50;;;;;;;-2.97;87.13;102660.81;5070391;28;20472;-74
2022/03/07 04:45:50;;;;;;;22.50;10.20;;;;;;;-2.95;87.08;102672.03;5069183;28;20033;-74
2022/03/07 04:48:15;;;;;;;20.02;8.68;;;;;;;-2.95;86.75;102667.66;5069371;28;20029;-75
2022/03/07 04:50:41;;;;;;;21.23;10.82;;;;;;;-2.97;87.21;102672.09;5069241;28;20387;-75
2022/03/07 04:53:07;;;;;;;16.85;9.35;;;;;;;-3.02;87.00;102663.59;5069265;28;20056;-74
2022/03/07 04:55:32;;;;;;;21.65;9.43;;;;;;;-3.02;86.51;102670.59;5069003;28;20032;-74
2022/03/07 04:57:58;;;;;;;20.15;9.95;;;;;;;-3.04;87.62;102659.34;5068730;28;20032;-74
2022/03/07 05:00:23;;;;;;;19.65;8.95;;;;;;;-3.10;86.81;102665.69;5071362;28;20036;-74
2022/03/07 05:02:48;;;;;;;19.90;10.70;;;;;;;-3.06;87.93;102669.03;5072633;28;20059;-76
2022/03/07 05:05:14;;;;;;;19.73;9.35;;;;;;;-3.20;87.26;102653.91;5071589;28;20610;-74
2022/03/07 05:07:39;;;;;;;19.73;8.15;;;;;;;-3.10;87.19;102665.69;5071509;28;20105;-74
2022/03/07 05:10:05;;;;;;;20.30;11.10;;;;;;;-3.08;87.53;102669.09;5072731;28;20478;-74
2022/03/07 05:12:31;;;;;;;28.85;10.93;;;;;;;-3.10;87.75;102668.28;5072664;28;20463;-74
2022/03/07 05:14:57;;;;;;;19.70;10.00;;;;;;;-3.09;87.59;102667.41;5072268;28;20056;-74
2022/03/07 05:17:23;;;;;;;24.58;10.18;;;;;;;-3.08;87.81;102669.91;5072705;28;20028;-74
2022/03/07 05:19:48;;;;;;;20.65;10.25;;;;;;;-3.09;88.62;102663.03;5072656;28;20032;-74
2022/03/07 05:22:14;;;;;;;20.60;9.35;;;;;;;-3.11;87.53;102670.06;5072247;28;20034;-74
2022/03/07 05:24:40;;;;;;;22.77;10.43;;;;;;;-3.13;87.78;102671.03;5071689;28;20041;-74
2022/03/07 05:27:06;;;;;;;21.60;9.30;;;;;;;-3.14;87.54;102664.97;5070490;28;20033;-74
2022/03/07 05:29:31;;;;;;;22.90;11.23;;;;;;;-3.13;88.87;102666.66;5072365;28;20070;-74
2022/03/07 05:31:57;;;;;;;22.38;11.65;;;;;;;-3.15;88.27;102667.63;5072285;28;20028;-74
2022/03/07 05:34:22;;;;;;;24.13;11.32;;;;;;;-3.13;88.96;102668.41;5072266;28;20052;-74
2022/03/07 05:36:47;;;;;;;18.70;10.38;;;;;;;-3.13;89.08;102668.41;5072246;28;20025;-74
2022/03/07 05:39:13;;;;;;;20.85;10.30;;;;;;;-3.17;89.24;102667.72;5072078;28;20064;-74
2022/03/07 05:41:38;;;;;;;31.77;10.40;;;;;;;-3.09;89.82;102660.41;5071818;28;20051;-74
2022/03/07 05:44:04;;;;;;;24.50;11.35;;;;;;;-3.07;89.66;102657.72;5072163;28;20040;-74
2022/03/07 05:46:29;;;;;;;22.55;11.57;;;;;;;-3.06;89.41;102666.41;5072189;28;20020;-74
2022/03/07 05:48:54;;;;;;;19.80;9.93;;;;;;;-3.07;88.85;102655.09;5070801;28;20029;-74
2022/03/07 05:51:23;;;;;;;22.23;9.95;;;;;;;-3.09;89.37;102667.41;5072078;28;20033;-74
2022/03/07 05:53:50;;;;;;;20.50;10.68;;;;;;;-3.12;89.22;102665.75;5071945;28;20031;-74
2022/03/07 05:56:15;;;;;;;23.48;11.82;;;;;;;-3.17;88.94;102664.22;5071582;28;20039;-74
2022/03/07 05:58:41;;;;;;;20.45;9.32;;;;;;;-3.11;89.39;102677.03;5071947;28;20028;-74
2022/03/07 06:01:06;;;;;;;22.50;11.70;;;;;;;-3.12;89.53;102670.97;5071954;28;20025;-74
2022/03/07 06:03:32;;;;;;;21.10;10.40;;;;;;;-3.11;89.36;102672.66;5071945;28;20034;-74
2022/03/07 06:05:57;;;;;;;23.20;11.15;;;;;;;-3.15;89.05;102686.72;5071725;28;20016;-74
2022/03/07 06:08:22;;;;;;;18.63;8.73;;;;;;;-3.17;88.82;102696.41;5071583;28;20043;-74
2022/03/07 06:10:48;;;;;;;22.50;10.70;;;;;;;-3.19;88.97;102697.38;5071335;28;20067;-74
2022/03/07 06:13:14;;;;;;;20.95;10.02;;;;;;;-3.20;89.51;102696.50;5071535;28;20033;-74
2022/03/07 06:15:43;;;;;;;24.42;11.25;;;;;;;-3.14;89.11;102713.72;5071231;28;20028;-74
2022/03/07 06:18:10;;;;;;;22.95;11.23;;;;;;;-3.16;88.43;102703.31;5070038;28;20021;-74
2022/03/07 06:20:35;;;;;;;20.95;11.05;;;;;;;-3.19;89.12;102700.84;5071356;28;20040;-74
2022/03/07 06:23:01;;;;;;;24.38;9.65;;;;;;;-3.18;89.16;102707.75;5070266;28;20033;-74
2022/03/07 06:25:28;;;;;;;23.60;10.63;;;;;;;-3.18;89.00;102702.53;5069215;28;20036;-74
2022/03/07 06:27:54;;;;;;;21.35;10.70;;;;;;;-3.22;89.35;102697.47;5071028;28;20039;-74
2022/03/07 06:30:19;;;;;;;21.95;10.32;;;;;;;-3.11;89.27;102701.38;5069393;28;20028;-74
2022/03/07 06:32:45;;;;;;;23.50;9.98;;;;;;;-3.03;89.22;102708.88;5069990;28;20024;-74
2022/03/07 06:35:10;;;;;;;21.63;11.30;;;;;;;-2.98;89.17;102714.78;5069840;28;20064;-74
2022/03/07 06:37:36;;;;;;;21.55;10.25;;;;;;;-2.96;88.84;102717.31;5070890;28;20053;-74
2022/03/07 06:40:02;;;;;;;19.48;9.95;;;;;;;-2.93;88.61;102720.66;5071080;28;20036;-74
2022/03/07 06:42:27;;;;;;;24.08;10.65;;;;;;;-2.92;87.70;102718.88;5071020;28;20582;-74
2022/03/07 06:44:53;;;;;;;22.70;12.02;;;;;;;-2.84;87.98;102719.41;5069674;28;20078;-74
2022/03/07 06:47:18;;;;;;;21.27;11.25;;;;;;;-2.79;87.47;102727.06;5071021;28;20512;-74
2022/03/07 06:49:45;;;;;;;21.55;11.45;;;;;;;-2.70;87.30;102724.94;5070591;28;20028;-74
2022/03/07 06:52:11;;;;;;;21.35;10.57;;;;;;;-2.57;86.25;102720.00;5069255;28;20441;-74
2022/03/07 06:54:37;;;;;;;18.83;10.00;;;;;;;-2.41;86.52;102725.47;5070477;28;20033;-74
2022/03/07 06:57:03;;;;;;;23.27;10.95;;;;;;;-2.28;86.62;102726.63;5070674;28;20384;-74
2022/03/07 06:59:29;;;;;;;22.80;10.68;;;;;;;-2.22;86.39;102713.28;5070613;28;20036;-74
2022/03/07 07:01:54;;;;;;;23.77;10.98;;;;;;;-2.15;85.69;102723.47;5070455;28;20024;-74
2022/03/07 07:04:20;;;;;;;23.38;10.02;;;;;;;-2.06;85.44;102715.22;5070382;28;20036;-75
2022/03/07 07:06:45;;;;;;;23.27;11.20;;;;;;;-1.88;85.31;102721.41;5070438;28;20028;-74
2022/03/07 07:09:11;;;;;;;25.67;11.93;;;;;;;-1.81;85.72;102722.78;5070414;28;20039;-74
2022/03/07 07:11:36;;;;;;;21.95;11.30;;;;;;;-1.82;85.96;102721.09;5070441;28;20028;-74
2022/03/07 07:14:03;;;;;;;23.48;11.60;;;;;;;-1.80;85.58;102714.03;5070350;28;20384;-74
2022/03/07 07:16:28;;;;;;;23.80;12.23;;;;;;;-1.74;85.77;102713.75;5070265;28;20495;-74
2022/03/07 07:18:54;;;;;;;21.88;12.27;;;;;;;-1.72;85.13;102708.47;5070353;28;20028;-74
2022/03/07 07:21:19;;;;;;;19.92;10.88;;;;;;;-1.75;85.13;102698.16;5069409;28;20472;-74
2022/03/07 07:23:44;;;;;;;21.52;10.63;;;;;;;-1.75;85.22;102698.16;5069730;28;20024;-74
2022/03/07 07:26:10;;;;;;;24.00;13.30;;;;;;;-1.62;84.89;102709.75;5070006;28;20032;-74
2022/03/07 07:28:36;;;;;;;24.63;12.07;;;;;;;-1.54;85.47;102715.47;5069770;28;20048;-74
2022/03/07 07:31:02;;;;;;;19.52;10.57;;;;;;;-1.30;84.89;102712.59;5069860;28;20032;-74
2022/03/07 07:33:27;;;;;;;25.65;11.57;;;;;;;-1.19;84.39;102712.91;5069604;28;20181;-74
2022/03/07 07:35:53;;;;;;;23.08;12.68;;;;;;;-1.16;83.40;102712.78;5069860;28;20217;-74
2022/03/07 07:38:19;;;;;;;23.73;12.77;;;;;;;-1.12;83.27;102706.47;5069327;28;20056;-74
2022/03/07 07:40:44;;;;;;;28.98;12.20;;;;;;;-1.00;83.80;102721.56;5069810;28;20032;-74
2022/03/07 07:43:10;;;;;;;20.92;10.05;;;;;;;-0.94;82.86;102716.03;5068182;28;20516;-74
2022/03/07 07:45:35;;;;;;;20.52;12.40;;;;;;;-0.91;82.58;102720.28;5069798;28;20028;-74
2022/03/07 07:48:01;;;;;;;22.10;11.63;;;;;;;-0.77;82.84;102723.06;5069756;28;20563;-74
2022/03/07 07:50:27;;;;;;;23.10;11.90;;;;;;;-0.41;81.80;102735.22;5069745;28;20028;-74
2022/03/07 07:52:55;;;;;;;22.33;11.95;;;;;;;-0.30;80.61;102726.81;5068149;28;20060;-74
2022/03/07 07:55:21;;;;;;;25.60;13.02;;;;;;;-0.19;80.94;102716.59;5069042;28;20032;-74
2022/03/07 07:57:46;;;;;;;23.60;12.13;;;;;;;0.11;80.05;102727.25;5069674;28;20031;-74
2022/03/07 08:00:15;;;;;;;23.95;10.65;;;;;;;0.35;78.96;102735.59;5069556;28;20025;-74
2022/03/07 08:02:42;;;;;;;25.27;13.82;;;;;;;0.81;77.25;102722.53;5068108;28;20060;-74
2022/03/07 08:05:08;;;;;;;22.30;12.57;;;;;;;1.19;76.25;102727.38;5068335;28;20027;-74
2022/03/07 08:07:34;;;;;;;26.23;12.32;;;;;;;1.62;75.59;102723.97;5069522;28;20037;-74
2022/03/07 08:10:00;;;;;;;20.65;10.13;;;;;;;2.03;72.85;102721.47;5069516;28;20030;-74
2022/03/07 08:12:26;;;;;;;19.05;10.02;;;;;;;2.00;72.16;102726.09;5069466;28;20071;-74
2022/03/07 08:14:52;;;;;;;19.55;9.73;;;;;;;2.01;72.17;102707.56;5068971;28;20048;-74
2022/03/07 08:17:17;;;;;;;22.05;10.48;;;;;;;2.25;71.67;102728.88;5069185;28;20032;-74
2022/03/07 08:19:42;;;;;;;21.42;11.10;;;;;;;2.07;72.24;102720.34;5070188;28;20422;-78
2022/03/07 08:22:08;;;;;;;20.52;11.05;;;;;;;2.21;72.59;102735.28;5069502;28;20135;-74
2022/03/07 08:24:33;;;;;;;21.35;10.35;;;;;;;2.41;72.33;102731.38;5069548;28;20127;-74
2022/03/07 08:26:59;;;;;;;16.95;9.20;;;;;;;2.65;70.04;102729.00;5067935;28;20119;-74
2022/03/07 08:29:24;;;;;;;20.63;10.73;;;;;;;2.52;69.05;102712.28;5067799;28;20052;-74
2022/03/07 08:31:50;;;;;;;19.88;9.93;;;;;;;2.33;70.36;102725.75;5069165;28;20125;-74
2022/03/07 08:34:16;;;;;;;20.25;9.48;;;;;;;2.19;69.29;102732.75;5072410;28;20033;-74
2022/03/07 08:36:41;;;;;;;17.75;9.45;;;;;;;2.06;69.69;102730.97;5072990;28;20111;-74
2022/03/07 08:39:06;;;;;;;20.08;9.85;;;;;;;2.02;70.39;102729.44;5073095;28;20075;-74
2022/03/07 08:41:33;;;;;;;18.90;9.25;;;;;;;2.06;71.38;102728.34;5070681;28;20028;-73
2022/03/07 08:43:59;;;;;;;17.83;9.35;;;;;;;2.16;70.16;102729.47;5066915;28;20170;-74
2022/03/07 08:46:25;;;;;;;18.42;9.13;;;;;;;2.21;70.37;102731.81;5069137;28;21052;-74
2022/03/07 08:48:50;;;;;;;20.45;9.75;;;;;;;2.18;68.97;102717.91;5069057;28;20047;-74
2022/03/07 08:51:16;;;;;;;16.63;9.02;;;;;;;2.24;69.36;102727.19;5070596;28;20033;-74
2022/03/07 08:53:42;;;;;;;17.83;8.60;;;;;;;2.32;70.46;102732.81;5072681;28;20028;-74
2022/03/07 08:56:07;;;;;;;15.05;7.45;;;;;;;2.37;67.90;102728.13;5072577;28;20082;-74
2022/03/07 08:58:32;;;;;;;17.83;8.15;;;;;;;2.33;68.09;102720.50;5073046;28;20125;-75
2022/03/07 09:00:58;;;;;;;16.88;8.30;;;;;;;2.45;67.51;102732.91;5072973;28;20547;-74
2022/03/07 09:03:23;;;;;;;18.17;9.20;;;;;;;2.50;68.08;102728.19;5072857;28;20487;-74
2022/03/07 09:05:48;;;;;;;15.05;7.60;;;;;;;2.51;66.30;102721.97;5072808;28;20094;-74
2022/03/07 09:08:14;;;;;;;14.95;7.40;;;;;;;2.51;65.02;102719.31;5071785;28;20039;-74
2022/03/07 09:10:39;;;;;;;14.93;7.32;;;;;;;2.55;64.70;102717.38;5072769;28;20110;-74
2022/03/07 09:13:05;;;;;;;15.07;6.80;;;;;;;2.63;65.17;102721.19;5072449;28;20024;-75
2022/03/07 09:15:30;;;;;;;14.43;8.95;;;;;;;2.69;64.84;102727.00;5068643;28;20028;-73
2022/03/07 09:17:56;;;;;;;14.85;8.00;;;;;;;2.80;66.01;102724.53;5067417;28;20032;-74
2022/03/07 09:20:21;;;;;;;11.90;6.15;;;;;;;2.91;64.51;102721.19;5068572;28;20031;-74
2022/03/07 09:22:46;;;;;;;13.77;6.85;;;;;;;2.97;65.15;102712.88;5068321;28;20032;-74
2022/03/07 09:25:13;;;;;;;13.40;6.78;;;;;;;3.11;61.81;102719.88;5068126;28;20094;-74
2022/03/07 09:27:39;;;;;;;12.55;7.93;;;;;;;3.18;62.31;102708.00;5071535;28;20028;-74
2022/03/07 09:30:06;;;;;;;14.82;7.13;;;;;;;3.23;62.19;102709.38;5071300;28;20051;-74
2022/03/07 09:32:31;;;;;;;13.88;7.50;;;;;;;3.29;61.77;102719.50;5071650;28;20078;-74
2022/03/07 09:34:57;;;;;;;13.32;6.65;;;;;;;3.26;61.84;102703.88;5071771;28;20419;-74
2022/03/07 09:37:22;;;;;;;14.45;7.40;;;;;;;3.35;61.82;102715.59;5071452;28;20476;-74
2022/03/07 09:39:47;;;;;;;16.30;6.50;;;;;;;3.45;61.40;102713.19;5069717;28;20028;-74
2022/03/07 09:42:13;;;;;;;12.50;6.85;;;;;;;3.53;62.64;102704.75;5070709;28;20089;-74
2022/03/07 09:44:38;;;;;;;11.40;6.25;;;;;;;3.62;59.68;102706.78;5070519;28;20115;-74
2022/03/07 09:47:04;;;;;;;13.95;6.90;;;;;;;3.70;60.53;102712.38;5070880;28;20361;-73
2022/03/07 09:49:30;;;;;;;8.95;5.32;;;;;;;3.73;59.45;102694.53;5070715;28;20040;-73
2022/03/07 09:51:56;;;;;;;10.95;5.35;;;;;;;3.76;59.22;102690.81;5070665;28;20035;-74
2022/03/07 09:54:23;;;;;;;12.25;5.75;;;;;;;3.85;58.37;102692.84;5070741;28;20103;-74
2022/03/07 09:56:49;;;;;;;8.95;5.35;;;;;;;3.91;57.86;102692.41;5070259;28;20041;-73
2022/03/07 09:59:16;;;;;;;10.15;5.82;;;;;;;3.97;58.73;102691.13;5070841;28;20036;-73
2022/03/07 10:01:42;;;;;;;9.95;4.55;;;;;;;4.05;55.87;102691.41;5070522;28;20024;-74
2022/03/07 10:04:10;;;;;;;9.55;5.10;;;;;;;3.92;56.03;102690.59;5069075;28;20380;-74
2022/03/07 10:06:36;;;;;;;11.27;4.75;;;;;;;3.97;58.23;102688.47;5071644;28;20441;-74
2022/03/07 10:09:03;;;;;;;12.55;5.53;;;;;;;4.12;57.46;102692.69;5070511;28;20115;-73
2022/03/07 10:11:30;;;;;;;11.07;5.68;;;;;;;4.27;60.27;102684.59;5070459;28;20348;-73
2022/03/07 10:14:01;;;;;;;12.55;5.65;;;;;;;4.32;56.36;102685.13;5070294;28;20028;-73
2022/03/07 10:16:42;;;;;;;9.43;4.90;;;;;;;4.25;54.81;102682.09;5068782;28;20033;-74
2022/03/07 10:19:09;;;;;;;10.90;4.97;;;;;;;4.22;57.18;102692.88;5070473;28;20020;-73
2022/03/07 10:21:35;;;;;;;7.40;4.63;;;;;;;4.29;56.18;102690.63;5070288;28;20017;-73
2022/03/07 10:24:00;;;;;;;7.65;4.22;;;;;;;4.29;55.43;102685.34;5070281;28;20031;-73
2022/03/07 10:26:34;;;;;;;9.20;4.57;;;;;;;4.30;56.26;102684.41;5069970;28;20024;-73
2022/03/07 10:29:00;;;;;;;9.60;5.63;;;;;;;4.29;55.61;102686.19;5069924;28;20111;-74
2022/03/07 10:31:28;;;;;;;7.63;4.32;;;;;;;4.31;55.62;102679.00;5070239;28;20128;-74
2022/03/07 10:34:01;;;;;;;10.45;4.60;;;;;;;4.33;54.21;102673.63;5069565;28;20040;-74
2022/03/07 10:36:36;;;;;;;7.57;4.47;;;;;;;4.33;53.96;102660.41;5069756;28;20032;-74
2022/03/07 10:39:08;;;;;;;9.88;5.50;;;;;;;4.33;54.59;102660.41;5025657;28;1273077;-74
2022/03/07 10:41:42;;;;;;;10.88;4.60;;;;;;;4.39;55.00;102652.88;5070918;28;20040;-74
2022/03/07 10:44:10;;;;;;;7.50;4.57;;;;;;;4.44;53.49;102668.41;5070995;28;20060;-74
2022/03/07 10:46:36;;;;;;;8.52;3.80;;;;;;;4.53;54.05;102656.31;5070679;28;20503;-74
2022/03/07 10:49:02;;;;;;;10.32;5.95;;;;;;;4.52;53.53;102633.50;5070402;28;20028;-74
2022/03/07 10:51:28;;;;;;;11.20;4.53;;;;;;;4.66;53.12;102653.59;5070670;28;20028;-74
2022/03/07 10:53:54;;;;;;;8.00;4.28;;;;;;;4.61;53.38;102649.53;5070831;28;20123;-74
2022/03/07 10:56:21;;;;;;;10.50;5.85;;;;;;;4.66;54.22;102635.94;5069589;28;21100;-74
2022/03/07 10:58:52;;;;;;;10.75;5.20;;;;;;;4.72;53.66;102635.50;5070219;28;20043;-74
2022/03/07 11:01:32;;;;;;;8.30;4.80;;;;;;;4.73;54.61;102626.59;5052983;28;20048;-74
2022/03/07 11:03:58;;;;;;;9.07;5.10;;;;;;;4.59;53.12;102626.81;5070543;28;20025;-74
2022/03/07 11:06:27;;;;;;;8.20;4.85;;;;;;;4.57;53.71;102628.72;5070384;28;20479;-74
2022/03/07 11:08:56;;;;;;;12.07;4.93;;;;;;;4.60;54.22;102629.31;5070337;28;20041;-74
2022/03/07 11:11:22;;;;;;;12.32;5.80;;;;;;;4.70;53.46;102620.72;5070371;28;20029;-74